Bridge of Earn, United Kingdom
Current Conditions -  °F | °C
As of 8:20 PM on Tuesday 25 Nov 2014 (Local Time) from EGPN Reporting Station
Broken Clouds Broken Clouds  
Wind Chill: 43°   Ceiling: 4800
Heat Index: 43°   Visibility: 6mi
Dew Point: 43°   Wind: 0mph
Humidity: 100%   Direction: NA
Pressure: 30.15"   Gusts: NA
Location:  56.35°N, 3.41°W
Report Text: EGPN 252020Z 00000KT 9999 SCT010 BKN048 06/06 Q1021
Loading
Personal Weather Stations






























Interactive Weather Map New forecast layout! Learn more

10-Day Weather Forecast

Advertisements
Track Severe Weather on mobile